Monitor — WCX9104 — position and weather

sailwx.info

Track history (hours):
 
Tides and Currents Weather Stations Pressure Air Temp Water Temp Dewpoint Dewpoint Depression Visibility Wind Speed Wind Dir Waves Ship Positions

Monitor

Owner: CROWLEY PUERTO RICO SERVICES INC, Seattle, WA. More information available from US FCC via Universal Licensing System and Coast Guard Vessel Documentation Center.

Last reported at 2016-Feb-12 15:21 UTC. Time now 2016-Feb-12 16:08 UTC.
Position N 39°49' W 075°24'.

Length 40 m; draft 5.8 m.

Type: Towing. MMSI: 366766920.

Date/timePositionNaut miles runAvg speedWind from/ knotsBaromVisibWave heightAir tempDewpointWater temp
2016-Feb-12 15:21N 39°49' W 075°24'810.0
2016-Feb-12 14:33N 39°51' W 075°14'8 8.4
2016-Feb-12 13:34N 39°58' W 075°07'1 0.6
2016-Feb-12 12:33N 39°58' W 075°07'0 0.0
2016-Feb-12 11:33N 39°58' W 075°07'1 1.1
2016-Feb-12 10:31N 39°59' W 075°05'0 0.0
2016-Feb-12 09:31N 39°59' W 075°05'0 0.0
2016-Feb-12 08:28N 39°59' W 075°05'0 0.0
2016-Feb-12 07:31N 39°59' W 075°05'0 0.0
2016-Feb-12 06:31N 39°59' W 075°05'0 0.0
2016-Feb-12 05:31N 39°59' W 075°05'0 0.0
2016-Feb-12 04:31N 39°59' W 075°05'0 0.0
2016-Feb-12 03:31N 39°59' W 075°05'0 0.0
2016-Feb-12 02:31N 39°59' W 075°05'0 0.0
2016-Feb-12 01:31N 39°59' W 075°05'0 0.0
2016-Feb-12 00:31N 39°59' W 075°05'0 0.0
2016-Feb-11 23:31N 39°59' W 075°05'0 0.0
2016-Feb-11 22:31N 39°59' W 075°05'0 0.0
2016-Feb-11 21:31N 39°59' W 075°05'0 0.0
2016-Feb-11 20:31N 39°59' W 075°05'0 0.0
2016-Feb-11 19:31N 39°59' W 075°05'0 0.0
2016-Feb-11 18:31N 39°59' W 075°05'0 0.0
2016-Feb-11 17:31N 39°59' W 075°05'0 0.0
2016-Feb-11 16:31N 39°59' W 075°05'0 0.0
2016-Feb-11 15:31N 39°59' W 075°05'0 0.0
2016-Feb-11 14:31N 39°59' W 075°05'0 0.0
2016-Feb-11 13:31N 39°59' W 075°05'0 0.0
2016-Feb-11 12:31N 39°59' W 075°05'0 0.0
2016-Feb-11 11:31N 39°59' W 075°05'0 0.0
2016-Feb-11 10:31N 39°59' W 075°05'0 0.0
2016-Feb-11 09:31N 39°59' W 075°05'0 0.0
2016-Feb-11 08:31N 39°59' W 075°05'0 0.0
2016-Feb-11 07:31N 39°59' W 075°05'0 0.0
2016-Feb-11 06:31N 39°59' W 075°05'0 0.0
2016-Feb-11 05:31N 39°59' W 075°05'0 0.0
2016-Feb-11 04:31N 39°59' W 075°05'0 0.0
2016-Feb-11 03:31N 39°59' W 075°05'0 0.0
2016-Feb-11 02:31N 39°59' W 075°05'0 0.0
2016-Feb-11 01:31N 39°59' W 075°05'0 0.0
2016-Feb-11 00:31N 39°59' W 075°05'0 0.0
2016-Feb-10 23:31N 39°59' W 075°05'0 0.0
2016-Feb-10 22:31N 39°59' W 075°05'0 0.1
2016-Feb-10 21:33N 39°59' W 075°05'1 1.1
2016-Feb-10 20:33N 39°58' W 075°07'0 0.0
2016-Feb-10 19:33N 39°58' W 075°07'0 0.1
2016-Feb-10 18:33N 39°58' W 075°07'6 6.3
2016-Feb-10 17:33N 39°53' W 075°11'1110.8
2016-Feb-10 16:33N 39°49' W 075°24'1111.1
2016-Feb-10 15:33N 39°40' W 075°32'1010.2
2016-Feb-10 14:33N 39°29' W 075°34'1010.0
2016-Feb-10 13:33N 39°21' W 075°26'1010.2
2016-Feb-10 12:33N 39°13' W 075°18'10 9.8
2016-Feb-10 11:33N 39°05' W 075°11'11 9.8
2016-Feb-10 10:28N 38°55' W 075°06'8 9.0
2016-Feb-10 09:33N 38°48' W 075°02'9 8.6
2016-Feb-10 08:33N 38°42' W 074°54'  
2016-Feb-03 05:33N 18°30' W 066°07'3 0.8
2016-Feb-03 02:04N 18°27' W 066°06'0 0.0
2016-Feb-03 01:31N 18°27' W 066°06'0 0.0
2016-Feb-03 00:19N 18°27' W 066°06'0 0.0
2016-Feb-02 23:31N 18°27' W 066°06'0 0.0
2016-Feb-02 22:28N 18°27' W 066°06'0 0.0
2016-Feb-02 18:28N 18°27' W 066°06'0 0.0
2016-Feb-02 16:19N 18°27' W 066°06'  
Track history (hours):
 
Tides and Currents Weather Stations Pressure Air Temp Water Temp Dewpoint Dewpoint Depression Visibility Wind Speed Wind Dir Waves Ship Positions

Monitor

Owner: CROWLEY PUERTO RICO SERVICES INC, Seattle, WA. More information available from US FCC via Universal Licensing System and Coast Guard Vessel Documentation Center.

Last reported at 2016-Feb-12 15:21 UTC. Time now 2016-Feb-12 16:08 UTC.
Position N 39°49' W 075°24'.

Length 40 m; draft 5.8 m.

Type: Towing. MMSI: 366766920.

Date/timePositionNaut miles runAvg speedWind from/ knotsBaromVisibWave heightAir tempDewpointWater temp
2016-Feb-12 15:21N 39°49' W 075°24'810.0
2016-Feb-12 14:33N 39°51' W 075°14'8 8.4
2016-Feb-12 13:34N 39°58' W 075°07'1 0.6
2016-Feb-12 12:33N 39°58' W 075°07'0 0.0
2016-Feb-12 11:33N 39°58' W 075°07'1 1.1
2016-Feb-12 10:31N 39°59' W 075°05'0 0.0
2016-Feb-12 09:31N 39°59' W 075°05'0 0.0
2016-Feb-12 08:28N 39°59' W 075°05'0 0.0
2016-Feb-12 07:31N 39°59' W 075°05'0 0.0
2016-Feb-12 06:31N 39°59' W 075°05'0 0.0
2016-Feb-12 05:31N 39°59' W 075°05'0 0.0
2016-Feb-12 04:31N 39°59' W 075°05'0 0.0
2016-Feb-12 03:31N 39°59' W 075°05'0 0.0
2016-Feb-12 02:31N 39°59' W 075°05'0 0.0
2016-Feb-12 01:31N 39°59' W 075°05'0 0.0
2016-Feb-12 00:31N 39°59' W 075°05'0 0.0
2016-Feb-11 23:31N 39°59' W 075°05'0 0.0
2016-Feb-11 22:31N 39°59' W 075°05'0 0.0
2016-Feb-11 21:31N 39°59' W 075°05'0 0.0
2016-Feb-11 20:31N 39°59' W 075°05'0 0.0
2016-Feb-11 19:31N 39°59' W 075°05'0 0.0
2016-Feb-11 18:31N 39°59' W 075°05'0 0.0
2016-Feb-11 17:31N 39°59' W 075°05'0 0.0
2016-Feb-11 16:31N 39°59' W 075°05'0 0.0
2016-Feb-11 15:31N 39°59' W 075°05'0 0.0
2016-Feb-11 14:31N 39°59' W 075°05'0 0.0
2016-Feb-11 13:31N 39°59' W 075°05'0 0.0
2016-Feb-11 12:31N 39°59' W 075°05'0 0.0
2016-Feb-11 11:31N 39°59' W 075°05'0 0.0
2016-Feb-11 10:31N 39°59' W 075°05'0 0.0
2016-Feb-11 09:31N 39°59' W 075°05'0 0.0
2016-Feb-11 08:31N 39°59' W 075°05'0 0.0
2016-Feb-11 07:31N 39°59' W 075°05'0 0.0
2016-Feb-11 06:31N 39°59' W 075°05'0 0.0
2016-Feb-11 05:31N 39°59' W 075°05'0 0.0
2016-Feb-11 04:31N 39°59' W 075°05'0 0.0
2016-Feb-11 03:31N 39°59' W 075°05'0 0.0
2016-Feb-11 02:31N 39°59' W 075°05'0 0.0
2016-Feb-11 01:31N 39°59' W 075°05'0 0.0
2016-Feb-11 00:31N 39°59' W 075°05'0 0.0
2016-Feb-10 23:31N 39°59' W 075°05'0 0.0
2016-Feb-10 22:31N 39°59' W 075°05'0 0.1
2016-Feb-10 21:33N 39°59' W 075°05'1 1.1
2016-Feb-10 20:33N 39°58' W 075°07'0 0.0
2016-Feb-10 19:33N 39°58' W 075°07'0 0.1
2016-Feb-10 18:33N 39°58' W 075°07'6 6.3
2016-Feb-10 17:33N 39°53' W 075°11'1110.8
2016-Feb-10 16:33N 39°49' W 075°24'1111.1
2016-Feb-10 15:33N 39°40' W 075°32'1010.2
2016-Feb-10 14:33N 39°29' W 075°34'1010.0
2016-Feb-10 13:33N 39°21' W 075°26'1010.2
2016-Feb-10 12:33N 39°13' W 075°18'10 9.8
2016-Feb-10 11:33N 39°05' W 075°11'11 9.8
2016-Feb-10 10:28N 38°55' W 075°06'8 9.0
2016-Feb-10 09:33N 38°48' W 075°02'9 8.6
2016-Feb-10 08:33N 38°42' W 074°54'  
2016-Feb-03 05:33N 18°30' W 066°07'3 0.8
2016-Feb-03 02:04N 18°27' W 066°06'0 0.0
2016-Feb-03 01:31N 18°27' W 066°06'0 0.0
2016-Feb-03 00:19N 18°27' W 066°06'0 0.0
2016-Feb-02 23:31N 18°27' W 066°06'0 0.0
2016-Feb-02 22:28N 18°27' W 066°06'0 0.0
2016-Feb-02 18:28N 18°27' W 066°06'0 0.0
2016-Feb-02 16:19N 18°27' W 066°06'  

Dump ship's entire track history